Cebollita Spring, Valles Caldera, New Mexico Weather observations

Data are for 10 minute period ending at time listed.
 Day   Time   Solar   Ave.   Ave.  Ave.  Vector  Max.   Baro.   Total    
  of    of     Rad.   Air    Rel.  Wind   Wind   Wind  Press.  Precip.   
Year   Day            Temp.  Hum.  Speed  Dir.   Gust                    
2016   (MST)  Kw/m2    F      %     mph   deg.    mph    mb.     in.     
-------------------------------------------------------------------------
 342   12:30   0.15   25.8    67    4.9   315    10.2   99999.0    0.00 
 342   12:40   0.24   26.4    65    5.8   328    11.9   99999.0    0.00 
 342   12:50   0.28   26.9    63    7.9   310    15.5   99999.0    0.00 
 342   13:00   0.45   28.6    58    7.1   280    14.3   99999.0    0.00 
 342   13:10   0.37   29.2    55    6.2   303    13.7   99999.0    0.00 
 342   13:20   0.30   29.1    54    7.4   317    17.9   99999.0    0.00 
 342   13:30   0.18   28.2    56    5.9   289    17.3   99999.0    0.00 
 342   13:40   0.18   27.7    57    6.0   321    13.7   99999.0    0.00 
 342   13:50   0.19   27.6    57    4.8   313    14.6   99999.0    0.00 
 342   14:00   0.16   27.4    56    6.4   251    13.7   99999.0    0.00 
 342   14:10   0.20   27.4    57    4.7   296    10.2   99999.0    0.00 
 342   14:20   0.31   28.3    55    4.8   292    13.1   99999.0    0.00 
 342   14:30   0.33   28.7    54    6.6   283    13.7   99999.0    0.00 
 342   14:40   0.26   27.7    54    8.4   278    14.9   99999.0    0.00 
 342   14:50   0.21   27.0    55    8.7   278    16.7   99999.0    0.00 
 342   15:00   0.16   26.5    56    7.6   278    15.5   99999.0    0.00 
 342   15:10   0.24   26.7    56    6.8   278    16.1   99999.0    0.00 
 342   15:20   0.21   27.2    54    6.8   307    13.7   99999.0    0.00 
 342   15:30   0.19   26.9    54    7.1   291    13.7   99999.0    0.00 
 342   15:40   0.16   26.7    54    5.0   304    10.8   99999.0    0.00 
 342   15:50   0.16   27.0    53    4.7   278    13.1   99999.0    0.00 
 342   16:00   0.12   27.0    53    6.3   287    11.3   99999.0    0.00 
 342   16:10   0.07   26.5    54    3.9   303    10.8   99999.0    0.00 
 342   16:20   0.06   25.9    55    3.6   285     6.0   99999.0    0.00 
 342   16:30   0.05   25.2    57    3.5   274    11.3   99999.0    0.00 
 342   16:40   0.02   24.8    59    2.9   325     5.4   99999.0    0.00 
 342   16:50   0.01   24.1    60    2.7   344     6.0   99999.0    0.00 
 342   17:00   0.00   23.7    60    3.2   349     8.4   99999.0    0.00 
 342   17:10   0.00   23.0    62    3.3     6     6.9   99999.0    0.00 
 342   17:20   0.00   22.5    62    2.5   359     6.0   99999.0    0.00 
 342   17:30   0.00   21.8    64    1.8   338     3.6   99999.0    0.00 
 342   17:40   0.00   20.8    67    2.4    10     5.4   99999.0    0.00 
 342   17:50   0.00   20.4    68    3.8   356     6.6   99999.0    0.00 
 342   18:00   0.00   20.5    69    2.6     4     6.0   99999.0    0.00 
 342   18:10   0.00   20.1    70    3.3   342     6.6   99999.0    0.00 
 342   18:20   0.00   19.7    71    4.3   324     9.0   99999.0    0.00 
 342   18:30   0.00   19.7    71    3.9   330     6.6   99999.0    0.00 
 342   18:40   0.00   19.7    71    3.9   334     9.0   99999.0    0.00 
 342   18:50   0.00   19.8    70    3.9   315     7.8   99999.0    0.00 
 342   19:00   0.00   19.7    71    4.0   323     7.2   99999.0    0.00 
 342   19:10   0.00   20.0    70    4.8   326     9.0   99999.0    0.00 
 342   19:20   0.00   20.1    69    4.7   313     7.8   99999.0    0.00 
 342   19:30   0.00   20.7    67    5.3   322    10.8   99999.0    0.00 
 342   19:40   0.00   20.8    66    4.4   325     9.6   99999.0    0.00 
 342   19:50   0.00   20.0    67    3.5   337     6.6   99999.0    0.00 
 342   20:00   0.00   19.2    69    2.6   320     4.8   99999.0    0.00 
 342   20:10   0.00   18.0    71    1.6   312     5.4   99999.0    0.00 
 342   20:20   0.00   16.8    74    2.6   110     4.8   99999.0    0.00 
 342   20:30   0.00   15.6    77    1.4    56     3.0   99999.0    0.00 
 342   20:40   0.00   14.2    79    1.2    66     3.0   99999.0    0.00 
 342   20:50   0.00   13.0    83    2.7    51     4.2   99999.0    0.00 
 342   21:00   0.00   12.1    84    1.0    61     2.4   99999.0    0.00 
 342   21:10   0.00   11.2    85    1.3    53     3.6   99999.0    0.00 
 342   21:20   0.00   10.4    87    1.6    32     3.3   99999.0    0.00 
 342   21:30   0.00    9.8    88    0.8    24     2.7   99999.0    0.00 
 342   21:40   0.00    9.4    89    0.6    12     2.4   99999.0    0.00 
 342   21:50   0.00    9.4    90    1.4    44     3.0   99999.0    0.00 
 342   22:00   0.00    9.3    89    1.4    62     3.0   99999.0    0.00 
 342   22:10   0.00    9.1    90    0.9    15     3.0   99999.0    0.00 
 342   22:20   0.00    8.9    90    0.6    12     2.4   99999.0    0.00 
 342   22:30   0.00    8.7    91    1.6    12     4.2   99999.0    0.00 
 342   22:40   0.00    9.1    90    1.8    80     4.2   99999.0    0.00 
 342   22:50   0.00    9.2    90    2.9     7     4.8   99999.0    0.00 
 342   23:00   0.00    9.1    90    1.1    65     1.8   99999.0    0.00 
 342   23:10   0.00    8.7    90    1.2    23     2.4   99999.0    0.00 
 342   23:20   0.00    8.3    90    1.6    53     2.4   99999.0    0.00 
 342   23:30   0.00    8.5    92    1.0    36     1.8   99999.0    0.00 
 342   23:40   0.00    8.2    90    0.6    96     1.8   99999.0    0.00 
 342   23:50   0.00    7.8    90    1.5    66     3.0   99999.0    0.00 
 343    0:00   0.00    7.3    90    1.7     5     3.6   99999.0    0.00 
 343    0:10   0.00    7.6    92    1.9    82     3.6   99999.0    0.00 
 343    0:20   0.00    8.1    93    1.7    33     3.6   99999.0    0.00 
 343    0:30   0.00    8.7    92    1.7    46     3.0   99999.0    0.00 
 343    0:40   0.00    8.8    91    1.5    36     2.4   99999.0    0.00 
 343    0:50   0.00    8.6    90    1.1    51     2.4   99999.0    0.00 
 343    1:00   0.00    8.5    90    2.3    73     4.2   99999.0    0.00 
 343    1:10   0.00    8.8    91    0.6    61     3.6   99999.0    0.00 
 343    1:20   0.00    8.1    88    0.8    46     3.0   99999.0    0.00 
 343    1:30   0.00    7.6    90    1.2    86     2.4   99999.0    0.00 
 343    1:40   0.00    7.2    90    0.9    48     4.2   99999.0    0.00 
 343    1:50   0.00    7.2    92    1.4    45     3.9   99999.0    0.00 
 343    2:00   0.00    7.3    92    0.5    40     3.0   99999.0    0.00 
 343    2:10   0.00    7.4    91    0.9    50     3.0   99999.0    0.00 
 343    2:20   0.00    7.0    90    1.7    74     3.6   99999.0    0.00 
 343    2:30   0.00    6.7    90    0.9    46     3.0   99999.0    0.00 
 343    2:40   0.00    6.7    91    0.3    46     1.2   99999.0    0.00 
 343    2:50   0.00    6.4    90    0.6    66     2.4   99999.0    0.00 
 343    3:00   0.00    6.8    92    0.0     0     0.0   99999.0    0.00 
 343    3:10   0.00    7.4    92    0.0     0     0.0   99999.0    0.00 
 343    3:20   0.00    7.8    92    0.0     0     0.0   99999.0    0.00 
 343    3:30   0.00    8.3    92    0.0     0     0.0   99999.0    0.00 
 343    3:40   0.00    8.9    92    0.0     0     0.0   99999.0    0.00 
 343    3:50   0.00    9.8    94    0.0     0     0.0   99999.0    0.00 
 343    4:00   0.00   10.5    93    0.0     0     0.0   99999.0    0.00 
 343    4:10   0.00   11.0    94    0.0     0     0.0   99999.0    0.00 
 343    4:20   0.00   11.4    93    0.0     0     0.0   99999.0    0.00 
 343    4:30   0.00   11.0    92    0.0     0     0.0   99999.0    0.00 
 343    4:40   0.00   10.4    92    0.0     0     0.0   99999.0    0.00 
 343    4:50   0.00    9.6    91    0.0     0     0.0   99999.0    0.00 
 343    5:00   0.00    9.8    94    0.0     0     0.0   99999.0    0.00 
 343    5:10   0.00   10.1    93    0.0     0     0.0   99999.0    0.00 
 343    5:20   0.00   10.1    93    0.0     0     0.0   99999.0    0.00 
 343    5:30   0.00   10.4    94    0.0     0     0.0   99999.0    0.00 
 343    5:40   0.00   11.4    96    0.0     0     0.0   99999.0    0.00 
 343    5:50   0.00   12.3    95    0.0     0     0.0   99999.0    0.00 
 343    6:00   0.00   12.6    95    0.0     0     0.0   99999.0    0.00 
 343    6:10   0.00   13.0    95    0.0     0     0.0   99999.0    0.00 
 343    6:20   0.00   13.6    96    0.0     0     0.0   99999.0    0.00 
 343    6:30   0.00   13.7    95    0.0     0     0.0   99999.0    0.00 
 343    6:40   0.00   14.1    96    0.0     0     0.0   99999.0    0.00 
 343    6:50   0.00   14.3    96    0.0     0     0.0   99999.0    0.00 
 343    7:00   0.00   14.2    95    0.0     0     0.0   99999.0    0.00 
 343    7:10   0.00   13.8    94    0.0     0     0.0   99999.0    0.00 
 343    7:20   0.01   13.3    94    0.0     0     0.0   99999.0    0.00 
 343    7:30   0.01   13.5    96    0.0     0     0.0   99999.0    0.00 
 343    7:40   0.02   13.8    95    0.0     0     0.0   99999.0    0.00 
 343    7:50   0.04   14.2    94    0.0     0     0.0   99999.0    0.00 
 343    8:00   0.05   14.9    93    0.2   305     1.8   99999.0    0.00 
 343    8:10   0.13   16.0    92    1.1   288     2.4   99999.0    0.00 
 343    8:20   0.15   17.5    85    0.1   267     1.2   99999.0    0.00 
 343    8:30   0.15   18.4    82    0.4   316     2.4   99999.0    0.00 
 343    8:40   0.17   19.6    82    0.4   115     2.4   99999.0    0.00 
 343    8:50   0.23   21.5    73    0.9   172     3.0   99999.0    0.00 
 343    9:00   0.17   22.8    69    1.8   198     3.6   99999.0    0.00 
 343    9:10   0.15   22.9    67    1.7   197     3.0   99999.0    0.00 
 343    9:20   0.23   23.9    64    2.0   213     3.6   99999.0    0.00 
 343    9:30   0.19   24.9    61    2.9   146     6.0   99999.0    0.00 
 343    9:40   0.15   25.2    61    2.6   128     4.2   99999.0    0.00 
 343    9:50   0.17   24.8    60    3.6   144     6.0   99999.0    0.00 
 343   10:00   0.18   25.0    61    2.4   173     6.0   99999.0    0.00 
 343   10:10   0.20   25.1    60    3.0   159     5.4   99999.0    0.00 
 343   10:20   0.20   25.5    59    2.2   195     4.8   99999.0    0.00 
 343   10:30   0.21   26.1    58    2.6   140     4.8   99999.0    0.00 
 343   10:40   0.22   26.0    58    2.8   141     5.4   99999.0    0.00 
 343   10:50   0.28   26.6    57    2.3   208     4.2   99999.0    0.00 
 343   11:00   0.33   26.7    56    2.8   222     5.4   99999.0    0.00 
 343   11:10   0.45   29.3    52    2.2   200     4.2   99999.0    0.00 
 343   11:20   0.46   31.5    47    2.6   186     5.4   99999.0    0.00 
 343   11:30   0.41   31.6    47    2.5   290     4.8   99999.0    0.00 
 343   11:40   0.46   32.4    47    2.2   254     5.4   99999.0    0.00 
 343   11:50   0.46   34.0    44    2.6   193     6.0   99999.0    0.00 
 343   12:00   0.37   32.6    46    3.5   214     6.0   99999.0    0.00 
 343   12:10   0.54   34.2    45    3.7   171     8.4   99999.0    0.00 
 343   12:20   0.46   35.0    43    4.3   160     7.2   99999.0    0.00 

Return to Cebollita Spring, Valles Caldera graphs page.


Western Regional Climate Center,wrcc@dri.edu